createdAt,value
2023-04-09T00:00:47.030Z,1001.64
2023-04-09T00:01:47.065Z,1001.66
2023-04-09T00:02:47.067Z,1001.59
2023-04-09T00:03:47.024Z,1001.64
2023-04-09T00:04:47.084Z,1001.59
2023-04-09T00:05:46.968Z,1001.63
2023-04-09T00:06:46.979Z,1001.59
2023-04-09T00:07:46.961Z,1001.51
2023-04-09T00:08:46.955Z,1001.54
2023-04-09T00:09:46.931Z,1001.66
2023-04-09T00:10:46.936Z,1001.51
2023-04-09T00:11:46.913Z,1001.63
2023-04-09T00:12:46.907Z,1001.60
2023-04-09T00:13:46.894Z,1001.54
2023-04-09T00:14:46.879Z,1001.53
2023-04-09T00:15:46.863Z,1001.59
2023-04-09T00:16:46.870Z,1001.54
2023-04-09T00:17:46.870Z,1001.52
2023-04-09T00:18:46.831Z,1001.52
2023-04-09T00:19:46.820Z,1001.56
2023-04-09T00:20:46.832Z,1001.55
2023-04-09T00:21:46.795Z,1001.55
2023-04-09T00:22:46.804Z,1001.50
2023-04-09T00:23:46.781Z,1001.50
2023-04-09T00:24:46.774Z,1001.45
2023-04-09T00:25:46.766Z,1001.54
2023-04-09T00:26:46.747Z,1001.46
2023-04-09T00:27:46.766Z,1001.46
2023-04-09T00:28:46.723Z,1001.56
2023-04-09T00:29:46.714Z,1001.54
2023-04-09T00:30:46.713Z,1001.47
2023-04-09T00:31:46.761Z,1001.56
2023-04-09T00:32:46.739Z,1001.53
2023-04-09T00:33:46.670Z,1001.50
2023-04-09T00:34:47.876Z,1001.54
2023-04-09T00:35:47.842Z,1001.57
2023-04-09T00:36:47.797Z,1001.46
2023-04-09T00:37:47.803Z,1001.46
2023-04-09T00:38:47.808Z,1001.47
2023-04-09T00:39:47.783Z,1001.46
2023-04-09T00:40:47.793Z,1001.46
2023-04-09T00:41:47.779Z,1001.46
2023-04-09T00:42:47.789Z,1001.48
2023-04-09T00:43:47.740Z,1001.43
2023-04-09T00:44:47.748Z,1001.44
2023-04-09T00:45:47.756Z,1001.45
2023-04-09T00:46:47.710Z,1001.41
2023-04-09T00:47:47.775Z,1001.40
2023-04-09T00:48:47.696Z,1001.41
2023-04-09T00:49:47.709Z,1001.47
2023-04-09T00:50:47.675Z,1001.36
2023-04-09T00:51:47.668Z,1001.38
2023-04-09T00:52:47.647Z,1001.36
2023-04-09T00:53:47.652Z,1001.38
2023-04-09T00:54:47.633Z,1001.44
2023-04-09T00:55:47.609Z,1001.46
2023-04-09T00:56:47.619Z,1001.43
2023-04-09T00:57:47.615Z,1001.40
2023-04-09T00:58:47.578Z,1001.45
2023-04-09T00:59:47.594Z,1001.48
2023-04-09T01:00:47.617Z,1001.36
2023-04-09T01:01:47.608Z,1001.44
2023-04-09T01:02:47.761Z,1001.44
2023-04-09T01:03:47.666Z,1001.47
2023-04-09T01:04:47.538Z,1001.42
2023-04-09T01:05:47.522Z,1001.35
2023-04-09T01:06:47.529Z,1001.47
2023-04-09T01:07:47.521Z,1001.47
2023-04-09T01:08:48.469Z,1001.51
2023-04-09T01:09:47.482Z,1001.49
2023-04-09T01:10:47.458Z,1001.53
2023-04-09T01:11:47.459Z,1001.45
2023-04-09T01:12:47.451Z,1001.51
2023-04-09T01:13:48.455Z,1001.50
2023-04-09T01:14:47.443Z,1001.40
2023-04-09T01:15:47.408Z,1001.44
2023-04-09T01:16:47.424Z,1001.50
2023-04-09T01:17:47.439Z,1001.41
2023-04-09T01:18:47.349Z,1001.41
2023-04-09T01:19:47.342Z,1001.39
2023-04-09T01:20:47.392Z,1001.43
2023-04-09T01:21:47.317Z,1001.39
2023-04-09T01:22:47.363Z,1001.36
2023-04-09T01:23:47.347Z,1001.45
2023-04-09T01:24:47.319Z,1001.38
2023-04-09T01:25:47.318Z,1001.34
2023-04-09T01:26:47.296Z,1001.36
2023-04-09T01:27:47.347Z,1001.43
2023-04-09T01:28:47.272Z,1001.47
2023-04-09T01:29:47.280Z,1001.45
2023-04-09T01:30:47.379Z,1001.39
2023-04-09T01:31:47.252Z,1001.43
2023-04-09T01:32:47.291Z,1001.41
2023-04-09T01:33:47.236Z,1001.44
2023-04-09T01:34:47.221Z,1001.39
2023-04-09T01:35:47.245Z,1001.47
2023-04-09T01:36:47.203Z,1001.40
2023-04-09T01:37:47.170Z,1001.41
2023-04-09T01:38:47.170Z,1001.33
2023-04-09T01:39:47.170Z,1001.43
2023-04-09T01:40:47.144Z,1001.38
2023-04-09T01:41:47.172Z,1001.43
2023-04-09T01:42:47.126Z,1001.41
2023-04-09T01:43:47.148Z,1001.43
2023-04-09T01:44:47.148Z,1001.36
2023-04-09T01:45:47.148Z,1001.38
2023-04-09T01:46:47.110Z,1001.38
2023-04-09T01:47:47.111Z,1001.42
2023-04-09T01:48:47.119Z,1001.44
2023-04-09T01:49:47.076Z,1001.48
2023-04-09T01:50:47.075Z,1001.38
2023-04-09T01:51:47.050Z,1001.38
2023-04-09T01:52:47.034Z,1001.36
2023-04-09T01:53:47.081Z,1001.37
2023-04-09T01:54:47.046Z,1001.38
2023-04-09T01:55:47.019Z,1001.39
2023-04-09T01:56:47.026Z,1001.43
2023-04-09T01:57:46.996Z,1001.38
2023-04-09T01:58:46.994Z,1001.43
2023-04-09T01:59:47.011Z,1001.40
2023-04-09T02:00:46.958Z,1001.36
2023-04-09T02:01:47.161Z,1001.33
2023-04-09T02:02:47.007Z,1001.31
2023-04-09T02:03:46.988Z,1001.42
2023-04-09T02:04:46.903Z,1001.30
2023-04-09T02:05:46.910Z,1001.38
2023-04-09T02:06:46.908Z,1001.36
2023-04-09T02:07:46.874Z,1001.28
2023-04-09T02:08:46.901Z,1001.45
2023-04-09T02:09:46.861Z,1001.34
2023-04-09T02:10:46.865Z,1001.39
2023-04-09T02:11:46.827Z,1001.40
2023-04-09T02:12:46.829Z,1001.41
2023-04-09T02:13:46.848Z,1001.39
2023-04-09T02:14:47.859Z,1001.44
2023-04-09T02:15:46.844Z,1001.43
2023-04-09T02:16:46.829Z,1001.30
2023-04-09T02:17:46.850Z,1001.46
2023-04-09T02:18:46.793Z,1001.35
2023-04-09T02:19:46.767Z,1001.34
2023-04-09T02:20:46.767Z,1001.44
2023-04-09T02:21:46.763Z,1001.40
2023-04-09T02:22:46.739Z,1001.27
2023-04-09T02:23:46.768Z,1001.37
2023-04-09T02:24:46.727Z,1001.38
2023-04-09T02:25:46.749Z,1001.33
2023-04-09T02:26:46.688Z,1001.32
2023-04-09T02:27:46.702Z,1001.28
2023-04-09T02:28:46.706Z,1001.28
2023-04-09T02:29:46.682Z,1001.36
2023-04-09T02:30:46.708Z,1001.30
2023-04-09T02:31:46.640Z,1001.37
2023-04-09T02:32:46.690Z,1001.31
2023-04-09T02:33:46.643Z,1001.40
2023-04-09T02:34:46.652Z,1001.34
2023-04-09T02:35:46.637Z,1001.35
2023-04-09T02:36:46.598Z,1001.32
2023-04-09T02:37:46.574Z,1001.29
2023-04-09T02:38:46.601Z,1001.32
2023-04-09T02:39:46.566Z,1001.29
2023-04-09T02:40:46.545Z,1001.27
2023-04-09T02:41:46.549Z,1001.40
2023-04-09T02:42:46.540Z,1001.37
2023-04-09T02:43:46.582Z,1001.41
2023-04-09T02:44:46.495Z,1001.32
2023-04-09T02:45:46.508Z,1001.37
2023-04-09T02:47:46.532Z,1001.31
2023-04-09T02:48:46.503Z,1001.32
2023-04-09T02:49:46.499Z,1001.37
2023-04-09T02:50:46.457Z,1001.38
2023-04-09T02:51:46.450Z,1001.32
2023-04-09T02:52:46.460Z,1001.37
2023-04-09T02:53:46.423Z,1001.37
2023-04-09T02:54:46.426Z,1001.35
2023-04-09T02:55:46.419Z,1001.44
2023-04-09T02:56:46.376Z,1001.36
2023-04-09T02:57:46.367Z,1001.35
2023-04-09T02:58:46.402Z,1001.35
2023-04-09T02:59:46.378Z,1001.32
2023-04-09T03:00:46.378Z,1001.28
2023-04-09T03:01:46.382Z,1001.34
2023-04-09T03:02:46.502Z,1001.30
2023-04-09T03:03:46.418Z,1001.27
2023-04-09T03:04:46.349Z,1001.33
2023-04-09T03:05:46.294Z,1001.35
2023-04-09T03:06:46.287Z,1001.25
2023-04-09T03:07:46.294Z,1001.35
2023-04-09T03:08:46.263Z,1001.34
2023-04-09T03:09:46.278Z,1001.34
2023-04-09T03:10:46.262Z,1001.22
2023-04-09T03:11:46.226Z,1001.22
2023-04-09T03:12:46.238Z,1001.22
2023-04-09T03:13:46.226Z,1001.19
2023-04-09T03:14:46.290Z,1001.23
2023-04-09T03:15:46.210Z,1001.27
2023-04-09T03:16:46.208Z,1001.27
2023-04-09T03:17:46.227Z,1001.17
2023-04-09T03:18:46.179Z,1001.18
2023-04-09T03:19:46.186Z,1001.19
2023-04-09T03:20:46.150Z,1001.16
2023-04-09T03:21:46.129Z,1001.20
2023-04-09T03:22:46.164Z,1001.16
2023-04-09T03:23:46.133Z,1001.11
2023-04-09T03:24:46.132Z,1001.16
2023-04-09T03:25:46.099Z,1001.08
2023-04-09T03:26:46.067Z,1001.12
2023-04-09T03:27:46.074Z,1001.16
2023-04-09T03:28:46.090Z,1001.11
2023-04-09T03:29:46.098Z,1001.11
2023-04-09T03:30:46.045Z,1001.14
2023-04-09T03:31:46.037Z,1001.16
2023-04-09T03:32:46.058Z,1001.10
2023-04-09T03:33:46.017Z,1001.24
2023-04-09T03:34:46.028Z,1001.14
2023-04-09T03:35:46.043Z,1001.18
2023-04-09T03:36:45.979Z,1001.03
2023-04-09T03:37:45.978Z,1001.13
2023-04-09T03:38:45.971Z,1001.09
2023-04-09T03:39:45.969Z,1001.14
2023-04-09T03:40:45.948Z,1001.12
2023-04-09T03:41:45.932Z,1001.17
2023-04-09T03:42:45.924Z,1001.11
2023-04-09T03:43:45.920Z,1001.08
2023-04-09T03:44:45.942Z,1001.11
2023-04-09T03:45:45.903Z,1001.04
2023-04-09T03:46:45.940Z,1001.04
2023-04-09T03:47:45.894Z,1001.15
2023-04-09T03:48:45.882Z,1001.07
2023-04-09T03:49:45.869Z,1001.16
2023-04-09T03:50:45.844Z,1001.09
2023-04-09T03:51:45.866Z,1001.10
2023-04-09T03:52:45.836Z,1001.12
2023-04-09T03:53:45.841Z,1001.12
2023-04-09T03:54:45.823Z,1001.03
2023-04-09T03:55:45.815Z,1001.10
2023-04-09T03:56:45.805Z,1001.08
2023-04-09T03:57:45.780Z,1001.09
2023-04-09T03:58:45.799Z,1001.11
2023-04-09T03:59:45.766Z,1001.12
2023-04-09T04:00:45.770Z,1001.07
2023-04-09T04:01:45.838Z,1001.05
2023-04-09T04:02:45.848Z,1001.03
2023-04-09T04:03:45.825Z,1001.20
2023-04-09T04:04:45.828Z,1001.12
2023-04-09T04:05:45.694Z,1001.16
2023-04-09T04:06:45.699Z,1001.07
2023-04-09T04:07:45.692Z,1001.10
2023-04-09T04:08:45.680Z,1001.13
2023-04-09T04:09:45.683Z,1001.13
2023-04-09T04:10:45.635Z,1001.11
2023-04-09T04:11:45.653Z,1001.03
2023-04-09T04:12:45.641Z,1001.07
2023-04-09T04:13:45.607Z,1001.10
2023-04-09T04:14:45.612Z,1001.04
2023-04-09T04:15:45.605Z,1001.18
2023-04-09T04:16:45.658Z,1001.12
2023-04-09T04:17:45.597Z,1001.16
2023-04-09T04:18:45.588Z,1001.14
2023-04-09T04:19:45.551Z,1001.12
2023-04-09T04:20:45.566Z,1001.11
2023-04-09T04:21:45.541Z,1001.13
2023-04-09T04:22:45.524Z,1001.12
2023-04-09T04:23:45.529Z,1001.20
2023-04-09T04:24:45.490Z,1001.18
2023-04-09T04:25:45.495Z,1001.24
2023-04-09T04:26:45.509Z,1001.22
2023-04-09T04:27:45.480Z,1001.19
2023-04-09T04:28:45.480Z,1001.23
2023-04-09T04:29:45.449Z,1001.27
2023-04-09T04:30:45.421Z,1001.27
2023-04-09T04:31:46.591Z,1001.27
2023-04-09T04:32:45.469Z,1001.24
2023-04-09T04:33:45.431Z,1001.19
2023-04-09T04:34:45.386Z,1001.32
2023-04-09T04:35:45.438Z,1001.29
2023-04-09T04:36:45.407Z,1001.28
2023-04-09T04:37:45.374Z,1001.36
2023-04-09T04:38:45.361Z,1001.22
2023-04-09T04:39:45.433Z,1001.34
2023-04-09T04:40:45.351Z,1001.28
2023-04-09T04:41:45.351Z,1001.28
2023-04-09T04:42:45.320Z,1001.23
2023-04-09T04:43:45.350Z,1001.34
2023-04-09T04:44:45.364Z,1001.30
2023-04-09T04:45:45.351Z,1001.33
2023-04-09T04:46:45.313Z,1001.28
2023-04-09T04:47:45.349Z,1001.27
2023-04-09T04:48:45.241Z,1001.27
2023-04-09T04:49:45.243Z,1001.34
2023-04-09T04:50:45.249Z,1001.28
2023-04-09T04:51:45.233Z,1001.38
2023-04-09T04:52:45.264Z,1001.31
2023-04-09T04:53:45.214Z,1001.35
2023-04-09T04:54:45.216Z,1001.32
2023-04-09T04:55:45.188Z,1001.30
2023-04-09T04:56:45.174Z,1001.33
2023-04-09T04:57:45.177Z,1001.38
2023-04-09T04:58:45.147Z,1001.36
2023-04-09T04:59:45.141Z,1001.35
2023-04-09T05:00:45.239Z,1001.37
2023-04-09T05:01:45.172Z,1001.38
2023-04-09T05:02:45.181Z,1001.43
2023-04-09T05:03:45.199Z,1001.37
2023-04-09T05:04:45.099Z,1001.48
2023-04-09T05:05:45.107Z,1001.47
2023-04-09T05:06:45.085Z,1001.36
2023-04-09T05:07:45.095Z,1001.40
2023-04-09T05:08:45.034Z,1001.40
2023-04-09T05:09:45.065Z,1001.32
2023-04-09T05:10:45.060Z,1001.39
2023-04-09T05:11:45.063Z,1001.44
2023-04-09T05:12:45.057Z,1001.40
2023-04-09T05:13:45.037Z,1001.42
2023-04-09T05:14:45.029Z,1001.43
2023-04-09T05:15:45.016Z,1001.47
2023-04-09T05:16:45.027Z,1001.41
2023-04-09T05:17:45.002Z,1001.47
2023-04-09T05:18:45.028Z,1001.41
2023-04-09T05:19:44.957Z,1001.47
2023-04-09T05:20:44.980Z,1001.45
2023-04-09T05:21:46.819Z,1001.55
2023-04-09T05:22:44.935Z,1001.49
2023-04-09T05:23:44.925Z,1001.47
2023-04-09T05:24:44.900Z,1001.52
2023-04-09T05:25:44.892Z,1001.49
2023-04-09T05:26:44.883Z,1001.47
2023-04-09T05:27:44.865Z,1001.51
2023-04-09T05:28:44.880Z,1001.46
2023-04-09T05:29:44.861Z,1001.57
2023-04-09T05:30:44.864Z,1001.50
2023-04-09T05:31:44.825Z,1001.44
2023-04-09T05:32:44.841Z,1001.57
2023-04-09T05:33:44.802Z,1001.56
2023-04-09T05:34:44.793Z,1001.48
2023-04-09T05:35:45.450Z,1001.56
2023-04-09T05:36:45.023Z,1001.53
2023-04-09T05:37:44.781Z,1001.52
2023-04-09T05:38:44.797Z,1001.54
2023-04-09T05:39:44.803Z,1001.48
2023-04-09T05:40:44.760Z,1001.51
2023-04-09T05:41:44.746Z,1001.63
2023-04-09T05:42:44.722Z,1001.54
2023-04-09T05:43:44.717Z,1001.55
2023-04-09T05:44:44.713Z,1001.53
2023-04-09T05:45:44.740Z,1001.54
2023-04-09T05:46:44.682Z,1001.52
2023-04-09T05:47:44.720Z,1001.64
2023-04-09T05:48:44.693Z,1001.57
2023-04-09T05:49:44.693Z,1001.58
2023-04-09T05:50:54.072Z,1001.60
2023-04-09T05:51:46.651Z,1001.61
2023-04-09T05:52:44.618Z,1001.57
2023-04-09T05:53:44.632Z,1001.54
2023-04-09T05:54:44.629Z,1001.59
2023-04-09T05:55:44.622Z,1001.61
2023-04-09T05:56:44.591Z,1001.61
2023-04-09T05:57:45.973Z,1001.68
2023-04-09T05:58:47.587Z,1001.56
2023-04-09T05:59:44.564Z,1001.59
2023-04-09T06:00:44.611Z,1001.56
2023-04-09T06:01:44.560Z,1001.69
2023-04-09T06:02:44.713Z,1001.62
2023-04-09T06:03:44.638Z,1001.63
2023-04-09T06:04:44.560Z,1001.66
2023-04-09T06:05:44.548Z,1001.64
2023-04-09T06:06:44.464Z,1001.71
2023-04-09T06:07:44.493Z,1001.68
2023-04-09T06:08:45.386Z,1001.61
2023-04-09T06:09:51.403Z,1001.66
2023-04-09T06:10:44.487Z,1001.74
2023-04-09T06:11:47.039Z,1001.66
2023-04-09T06:12:44.442Z,1001.65
2023-04-09T06:13:44.436Z,1001.75
2023-04-09T06:14:44.438Z,1001.66
2023-04-09T06:15:44.454Z,1001.63
2023-04-09T06:16:44.400Z,1001.67
2023-04-09T06:17:44.419Z,1001.60
2023-04-09T06:18:44.374Z,1001.64
2023-04-09T06:19:44.364Z,1001.69
2023-04-09T06:20:44.382Z,1001.62
2023-04-09T06:21:44.359Z,1001.64
2023-04-09T06:22:44.350Z,1001.60
2023-04-09T06:23:44.335Z,1001.64
2023-04-09T06:24:44.335Z,1001.65
2023-04-09T06:25:44.327Z,1001.64
2023-04-09T06:26:44.329Z,1001.73
2023-04-09T06:27:44.478Z,1001.64
2023-04-09T06:28:44.275Z,1001.70
2023-04-09T06:29:44.257Z,1001.65
2023-04-09T06:30:44.402Z,1001.62
2023-04-09T06:31:44.244Z,1001.62
2023-04-09T06:32:53.672Z,1001.57
2023-04-09T06:33:46.228Z,1001.67
2023-04-09T06:34:44.215Z,1001.66
2023-04-09T06:35:44.205Z,1001.63
2023-04-09T06:36:44.184Z,1001.66
2023-04-09T06:37:44.161Z,1001.66
2023-04-09T06:38:44.185Z,1001.65
2023-04-09T06:39:50.688Z,1001.81
2023-04-09T06:40:46.147Z,1001.68
2023-04-09T06:41:44.140Z,1001.71
2023-04-09T06:42:44.151Z,1001.70
2023-04-09T06:43:44.115Z,1001.79
2023-04-09T06:44:44.091Z,1001.69
2023-04-09T06:45:44.068Z,1001.69
2023-04-09T06:46:44.098Z,1001.80
2023-04-09T06:47:44.085Z,1001.77
2023-04-09T06:48:44.054Z,1001.78
2023-04-09T06:49:44.032Z,1001.78
2023-04-09T06:50:44.047Z,1001.73
2023-04-09T06:51:44.020Z,1001.79
2023-04-09T06:52:44.008Z,1001.79
2023-04-09T06:53:43.999Z,1001.84
2023-04-09T06:54:44.040Z,1001.75
2023-04-09T06:55:44.011Z,1001.78
2023-04-09T06:56:44.099Z,1001.83
2023-04-09T06:57:43.983Z,1001.78
2023-04-09T06:58:43.961Z,1001.75
2023-04-09T06:59:43.929Z,1001.80
2023-04-09T07:00:43.944Z,1001.81
2023-04-09T07:01:44.040Z,1001.67
2023-04-09T07:02:44.146Z,1001.72
2023-04-09T07:03:43.951Z,1001.71
2023-04-09T07:04:43.974Z,1001.66
2023-04-09T07:05:43.876Z,1001.73
2023-04-09T07:06:43.943Z,1001.72
2023-04-09T07:07:43.943Z,1001.68
2023-04-09T07:08:43.832Z,1001.64
2023-04-09T07:09:43.846Z,1001.77
2023-04-09T07:10:43.818Z,1001.72
2023-04-09T07:11:43.851Z,1001.81
2023-04-09T07:12:43.840Z,1001.81
2023-04-09T07:13:43.829Z,1001.76
2023-04-09T07:14:43.870Z,1001.79
2023-04-09T07:15:43.843Z,1001.82
2023-04-09T07:16:43.906Z,1001.82
2023-04-09T07:17:43.904Z,1001.80
2023-04-09T07:18:43.839Z,1001.81
2023-04-09T07:19:43.758Z,1001.85
2023-04-09T07:20:43.704Z,1001.76
2023-04-09T07:21:43.740Z,1001.88
2023-04-09T07:22:43.693Z,1001.84
2023-04-09T07:23:43.696Z,1001.86
2023-04-09T07:24:43.779Z,1001.84
2023-04-09T07:25:43.683Z,1001.86
2023-04-09T07:26:43.666Z,1001.87
2023-04-09T07:27:43.658Z,1001.87
2023-04-09T07:28:43.656Z,1001.87
2023-04-09T07:29:43.644Z,1001.76
2023-04-09T07:30:43.638Z,1001.79
2023-04-09T07:31:43.649Z,1001.84
2023-04-09T07:32:43.665Z,1001.77
2023-04-09T07:33:43.588Z,1001.73
2023-04-09T07:34:43.576Z,1001.82
2023-04-09T07:35:43.591Z,1001.81
2023-04-09T07:36:44.523Z,1001.81
2023-04-09T07:37:43.581Z,1001.86
2023-04-09T07:38:43.532Z,1001.90
2023-04-09T07:39:43.535Z,1001.86
2023-04-09T07:40:43.536Z,1001.87
2023-04-09T07:41:43.552Z,1001.86
2023-04-09T07:42:43.494Z,1001.89
2023-04-09T07:43:43.513Z,1001.86
2023-04-09T07:44:43.476Z,1001.91
2023-04-09T07:45:43.444Z,1001.89
2023-04-09T07:46:43.578Z,1001.89
2023-04-09T07:47:43.442Z,1001.87
2023-04-09T07:48:43.468Z,1001.87
2023-04-09T07:49:43.408Z,1001.91
2023-04-09T07:50:43.416Z,1001.99
2023-04-09T07:51:43.655Z,1001.93
2023-04-09T07:52:43.399Z,1001.94
2023-04-09T07:53:43.371Z,1001.92
2023-04-09T07:54:43.363Z,1001.95
2023-04-09T07:55:43.376Z,1002.01
2023-04-09T07:56:43.360Z,1001.97
2023-04-09T07:57:43.343Z,1001.91
2023-04-09T07:58:43.334Z,1001.94
2023-04-09T07:59:43.318Z,1001.92
2023-04-09T08:00:43.325Z,1001.93
2023-04-09T08:01:43.393Z,1001.85
2023-04-09T08:02:43.398Z,1001.94
2023-04-09T08:03:43.337Z,1001.84
2023-04-09T08:04:43.470Z,1001.91
2023-04-09T08:05:43.268Z,1001.91
2023-04-09T08:06:43.293Z,1001.91
2023-04-09T08:07:43.236Z,1001.87
2023-04-09T08:08:43.251Z,1001.95
2023-04-09T08:09:43.217Z,1001.96
2023-04-09T08:10:43.219Z,1001.98
2023-04-09T08:11:43.224Z,1001.91
2023-04-09T08:12:43.207Z,1001.93
2023-04-09T08:13:43.208Z,1001.86
2023-04-09T08:14:43.203Z,1001.86
2023-04-09T08:15:43.155Z,1001.91
2023-04-09T08:16:43.243Z,1001.92
2023-04-09T08:17:43.184Z,1001.95
2023-04-09T08:18:43.139Z,1001.94
2023-04-09T08:19:43.136Z,1001.91
2023-04-09T08:20:43.132Z,1001.98
2023-04-09T08:21:43.212Z,1001.85
2023-04-09T08:22:43.116Z,1001.93
2023-04-09T08:23:43.092Z,1001.97
2023-04-09T08:24:43.105Z,1001.93
2023-04-09T08:25:43.038Z,1001.95
2023-04-09T08:26:43.050Z,1001.90
2023-04-09T08:27:43.080Z,1002.03
2023-04-09T08:28:43.042Z,1001.99
2023-04-09T08:29:43.038Z,1001.98
2023-04-09T08:30:43.038Z,1002.00
2023-04-09T08:31:43.031Z,1002.08
2023-04-09T08:32:43.034Z,1001.96
2023-04-09T08:33:43.008Z,1001.95
2023-04-09T08:34:42.997Z,1002.03
2023-04-09T08:35:42.973Z,1002.03
2023-04-09T08:36:42.979Z,1002.01
2023-04-09T08:37:42.948Z,1002.05
2023-04-09T08:38:42.947Z,1002.06
2023-04-09T08:39:42.931Z,1002.15
2023-04-09T08:40:42.934Z,1002.03
2023-04-09T08:41:42.928Z,1002.11
2023-04-09T08:42:42.925Z,1002.00
2023-04-09T08:43:56.986Z,1002.06
2023-04-09T08:44:44.895Z,1002.04
2023-04-09T08:45:42.923Z,1002.06
2023-04-09T08:46:42.889Z,1002.10
2023-04-09T08:47:42.983Z,1002.15
2023-04-09T08:48:42.952Z,1002.11
2023-04-09T08:49:42.850Z,1002.12
2023-04-09T08:50:42.847Z,1002.18
2023-04-09T08:51:42.811Z,1002.17
2023-04-09T08:52:42.817Z,1002.13
2023-04-09T08:53:42.798Z,1002.09
2023-04-09T08:54:42.838Z,1002.18
2023-04-09T08:55:42.778Z,1002.08
2023-04-09T08:56:42.888Z,1002.10
2023-04-09T08:57:42.755Z,1002.09
2023-04-09T08:58:42.766Z,1002.05
2023-04-09T08:59:42.733Z,1002.19
2023-04-09T09:00:42.726Z,1002.14
2023-04-09T09:01:42.770Z,1002.13
2023-04-09T09:02:42.794Z,1002.12
2023-04-09T09:03:42.752Z,1002.15
2023-04-09T09:04:42.708Z,1002.09
2023-04-09T09:05:42.697Z,1002.10
2023-04-09T09:06:42.673Z,1002.12
2023-04-09T09:07:42.655Z,1002.06
2023-04-09T09:08:42.657Z,1002.08
2023-04-09T09:09:42.715Z,1002.11
2023-04-09T09:10:42.622Z,1002.13
2023-04-09T09:11:42.616Z,1002.03
2023-04-09T09:12:42.616Z,1002.05
2023-04-09T09:13:42.602Z,1002.01
2023-04-09T09:14:42.564Z,1002.05
2023-04-09T09:15:42.563Z,1002.09
2023-04-09T09:16:42.784Z,1002.07
2023-04-09T09:17:42.664Z,1002.04
2023-04-09T09:18:42.612Z,1001.99
2023-04-09T09:19:42.514Z,1002.01
2023-04-09T09:20:42.514Z,1001.95
2023-04-09T09:21:42.560Z,1001.95
2023-04-09T09:22:42.502Z,1001.99
2023-04-09T09:23:42.499Z,1001.97
2023-04-09T09:24:42.481Z,1002.00
2023-04-09T09:25:42.471Z,1002.01
2023-04-09T09:26:42.497Z,1002.09
2023-04-09T09:27:42.463Z,1001.96
2023-04-09T09:28:42.453Z,1001.99
2023-04-09T09:29:42.399Z,1001.96
2023-04-09T09:30:42.451Z,1002.00
2023-04-09T09:31:42.422Z,1001.88
2023-04-09T09:32:42.433Z,1001.93
2023-04-09T09:33:42.401Z,1001.88
2023-04-09T09:34:42.414Z,1001.92
2023-04-09T09:35:42.410Z,1001.95
2023-04-09T09:36:42.355Z,1001.90
2023-04-09T09:37:42.334Z,1001.87
2023-04-09T09:38:42.336Z,1001.90
2023-04-09T09:39:42.316Z,1001.89
2023-04-09T09:40:42.341Z,1001.86
2023-04-09T09:41:42.330Z,1001.90
2023-04-09T09:42:42.311Z,1001.88
2023-04-09T09:43:42.338Z,1001.85
2023-04-09T09:44:42.247Z,1001.82
2023-04-09T09:45:42.264Z,1001.87
2023-04-09T09:46:42.279Z,1001.83
2023-04-09T09:47:42.266Z,1001.81
2023-04-09T09:48:42.194Z,1001.84
2023-04-09T09:49:42.171Z,1001.87
2023-04-09T09:50:42.185Z,1001.87
2023-04-09T09:51:42.177Z,1001.82
2023-04-09T09:52:42.167Z,1001.93
2023-04-09T09:53:42.158Z,1001.86
2023-04-09T09:54:42.134Z,1001.89
2023-04-09T09:55:42.128Z,1001.86
2023-04-09T09:56:42.118Z,1001.84
2023-04-09T09:57:42.175Z,1001.79
2023-04-09T09:58:42.094Z,1001.83
2023-04-09T09:59:42.084Z,1001.79
2023-04-09T10:00:42.062Z,1001.86
2023-04-09T10:01:42.141Z,1001.97
2023-04-09T10:02:42.170Z,1001.90
2023-04-09T10:03:42.008Z,1001.89
2023-04-09T10:04:42.067Z,1001.90
2023-04-09T10:05:42.009Z,1001.88
2023-04-09T10:06:41.993Z,1001.99
2023-04-09T10:07:42.007Z,1001.82
2023-04-09T10:08:41.985Z,1001.80
2023-04-09T10:09:41.967Z,1001.83
2023-04-09T10:10:41.984Z,1001.81
2023-04-09T10:11:41.949Z,1001.88
2023-04-09T10:12:41.948Z,1001.81
2023-04-09T10:13:41.917Z,1001.85
2023-04-09T10:14:41.899Z,1001.81
2023-04-09T10:15:41.942Z,1001.80
2023-04-09T10:16:41.910Z,1001.74
2023-04-09T10:17:41.986Z,1001.83
2023-04-09T10:18:41.868Z,1001.76
2023-04-09T10:19:41.865Z,1001.76
2023-04-09T10:20:41.878Z,1001.87
2023-04-09T10:21:42.840Z,1001.77
2023-04-09T10:22:42.846Z,1001.77
2023-04-09T10:23:41.824Z,1001.75
2023-04-09T10:24:41.801Z,1001.75
2023-04-09T10:25:41.797Z,1001.81
2023-04-09T10:26:41.834Z,1001.75
2023-04-09T10:27:41.811Z,1001.76
2023-04-09T10:28:41.759Z,1001.80
2023-04-09T10:29:41.758Z,1001.83
2023-04-09T10:30:41.754Z,1001.81
2023-04-09T10:31:41.811Z,1001.70
2023-04-09T10:32:41.782Z,1001.73
2023-04-09T10:33:41.708Z,1001.73
2023-04-09T10:34:41.768Z,1001.78
2023-04-09T10:35:41.727Z,1001.74
2023-04-09T10:36:41.706Z,1001.76
2023-04-09T10:37:41.732Z,1001.79
2023-04-09T10:38:41.728Z,1001.71
2023-04-09T10:39:41.715Z,1001.78
2023-04-09T10:40:41.675Z,1001.72
2023-04-09T10:41:41.686Z,1001.72
2023-04-09T10:42:41.642Z,1001.68
2023-04-09T10:43:41.627Z,1001.67
2023-04-09T10:44:41.729Z,1001.71
2023-04-09T10:45:41.623Z,1001.72
2023-04-09T10:46:41.701Z,1001.64
2023-04-09T10:47:41.656Z,1001.66
2023-04-09T10:48:41.607Z,1001.71
2023-04-09T10:49:41.593Z,1001.69
2023-04-09T10:50:41.555Z,1001.74
2023-04-09T10:51:41.537Z,1001.74
2023-04-09T10:52:41.528Z,1001.71
2023-04-09T10:53:41.521Z,1001.73
2023-04-09T10:54:42.545Z,1001.77
2023-04-09T10:55:41.518Z,1001.73
2023-04-09T10:56:41.479Z,1001.68
2023-04-09T10:57:41.507Z,1001.76
2023-04-09T10:58:41.500Z,1001.73
2023-04-09T10:59:41.468Z,1001.70
2023-04-09T11:00:41.490Z,1001.70
2023-04-09T11:01:41.504Z,1001.66
2023-04-09T11:02:41.536Z,1001.66
2023-04-09T11:03:41.463Z,1001.65
2023-04-09T11:04:41.432Z,1001.61
2023-04-09T11:05:41.410Z,1001.55
2023-04-09T11:06:41.380Z,1001.61
2023-04-09T11:07:41.390Z,1001.57
2023-04-09T11:08:41.376Z,1001.57
2023-04-09T11:09:41.348Z,1001.60
2023-04-09T11:10:41.336Z,1001.56
2023-04-09T11:11:41.322Z,1001.51
2023-04-09T11:12:41.322Z,1001.54
2023-04-09T11:13:41.323Z,1001.67
2023-04-09T11:14:41.312Z,1001.52
2023-04-09T11:15:41.301Z,1001.53
2023-04-09T11:16:41.335Z,1001.50
2023-04-09T11:17:41.356Z,1001.52
2023-04-09T11:18:41.261Z,1001.51
2023-04-09T11:19:41.286Z,1001.47
2023-04-09T11:20:41.282Z,1001.55
2023-04-09T11:21:41.237Z,1001.44
2023-04-09T11:22:41.198Z,1001.47
2023-04-09T11:23:41.260Z,1001.44
2023-04-09T11:24:41.219Z,1001.43
2023-04-09T11:25:41.196Z,1001.40
2023-04-09T11:26:41.917Z,1001.42
2023-04-09T11:27:41.209Z,1001.35
2023-04-09T11:28:41.367Z,1001.42
2023-04-09T11:29:41.197Z,1001.31
2023-04-09T11:30:41.182Z,1001.39
2023-04-09T11:31:41.168Z,1001.35
2023-04-09T11:32:42.132Z,1001.31
2023-04-09T11:33:41.197Z,1001.29
2023-04-09T11:34:41.126Z,1001.29
2023-04-09T11:35:41.129Z,1001.25
2023-04-09T11:36:41.118Z,1001.20
2023-04-09T11:37:41.092Z,1001.21
2023-04-09T11:38:41.091Z,1001.22
2023-04-09T11:39:41.071Z,1001.25
2023-04-09T11:40:41.065Z,1001.28
2023-04-09T11:41:41.065Z,1001.32
2023-04-09T11:42:41.045Z,1001.33
2023-04-09T11:43:41.064Z,1001.34
2023-04-09T11:44:41.019Z,1001.38
2023-04-09T11:45:41.010Z,1001.25
2023-04-09T11:46:41.094Z,1001.32
2023-04-09T11:47:41.024Z,1001.28
2023-04-09T11:48:40.988Z,1001.36
2023-04-09T11:49:40.968Z,1001.25
2023-04-09T11:50:40.968Z,1001.27
2023-04-09T11:51:41.002Z,1001.22
2023-04-09T11:52:40.926Z,1001.19
2023-04-09T11:53:40.933Z,1001.25
2023-04-09T11:54:40.926Z,1001.22
2023-04-09T11:55:40.945Z,1001.17
2023-04-09T11:56:40.921Z,1001.18
2023-04-09T11:57:40.914Z,1001.23
2023-04-09T11:58:40.916Z,1001.22
2023-04-09T11:59:40.876Z,1001.21
2023-04-09T12:00:40.877Z,1001.23
2023-04-09T12:01:40.948Z,1001.16
2023-04-09T12:02:40.980Z,1001.20
2023-04-09T12:03:40.908Z,1001.20
2023-04-09T12:04:40.915Z,1001.17
2023-04-09T12:05:42.796Z,1001.07
2023-04-09T12:06:41.819Z,1001.14